Time;durP1;ratioP1;P1;durP2;ratioP2;P2;SDS_P1;SDS_P2;PMS_P1;PMS_P2;Temp;Humidity;BMP_temperature;BMP_pressure;BME280_temperature;BME280_humidity;BME280_pressure;Samples;Min_cycle;Max_cycle;Signal;HPM_P1;HPM_P2
2022/03/01 00:02:46;;;;;;;10.73;7.90;;;1.90;45.90;;;;;;6229673;28;20476;-62
2022/03/01 00:05:49;;;;;;;9.60;7.70;;;1.90;46.10;;;;;;6230425;28;20471;-61
2022/03/01 00:08:54;;;;;;;11.60;8.00;;;1.80;46.10;;;;;;6225436;28;20556;-62
2022/03/01 00:11:58;;;;;;;9.87;7.63;;;1.90;46.40;;;;;;6230640;28;20479;-63
2022/03/01 00:15:01;;;;;;;12.27;7.70;;;1.90;46.40;;;;;;6230026;28;20476;-63
2022/03/01 00:18:04;;;;;;;10.07;8.60;;;1.90;46.40;;;;;;6228790;28;20491;-63
2022/03/01 00:21:08;;;;;;;11.17;8.80;;;1.80;46.40;;;;;;6228973;28;20760;-62
2022/03/01 00:24:11;;;;;;;12.27;7.10;;;1.80;46.70;;;;;;6229282;28;20471;-62
2022/03/01 00:27:16;;;;;;;11.60;8.87;;;1.70;46.70;;;;;;6229482;28;20503;-62
2022/03/01 00:30:19;;;;;;;13.93;8.17;;;1.60;46.80;;;;;;6229009;28;20491;-62
2022/03/01 00:33:23;;;;;;;11.37;7.40;;;1.70;47.00;;;;;;6231387;28;20487;-59
2022/03/01 00:36:26;;;;;;;10.13;7.03;;;1.60;47.20;;;;;;6231288;28;20471;-59
2022/03/01 00:39:29;;;;;;;11.30;8.80;;;1.60;47.30;;;;;;6230790;28;20542;-59
2022/03/01 00:42:34;;;;;;;9.60;7.63;;;1.50;47.40;;;;;;6232356;28;20469;-59
2022/03/01 00:45:37;;;;;;;11.60;9.20;;;1.50;47.60;;;;;;6230472;28;20460;-59
2022/03/01 00:48:41;;;;;;;11.03;8.20;;;1.50;47.80;;;;;;6230446;28;20547;-59
2022/03/01 00:51:44;;;;;;;10.67;8.40;;;1.50;47.90;;;;;;6228059;28;20484;-60
2022/03/01 00:54:47;;;;;;;8.30;7.50;;;1.50;48.00;;;;;;6227728;28;20445;-60
2022/03/01 00:57:51;;;;;;;8.50;7.67;;;1.50;48.00;;;;;;6227556;28;20471;-59
2022/03/01 01:00:54;;;;;;;8.40;7.33;;;1.50;48.20;;;;;;6227442;28;20534;-59
2022/03/01 01:03:58;;;;;;;7.67;6.97;;;1.40;48.30;;;;;;6227784;28;20473;-59
2022/03/01 01:07:01;;;;;;;11.30;7.90;;;1.40;48.50;;;;;;6227509;28;20468;-59
2022/03/01 01:10:05;;;;;;;8.57;6.70;;;1.40;48.30;;;;;;6227702;28;20531;-59
2022/03/01 01:13:10;;;;;;;9.83;7.00;;;1.40;48.60;;;;;;6213356;28;20491;-60
2022/03/01 01:16:13;;;;;;;8.63;7.73;;;1.40;48.80;;;;;;6227224;28;20479;-61
2022/03/01 01:19:16;;;;;;;8.07;7.27;;;1.30;48.80;;;;;;6226824;28;20999;-61
2022/03/01 01:25:40;;;;;;;9.30;6.77;;;1.20;48.70;;;;;;6227414;28;20491;-61
2022/03/01 01:28:45;;;;;;;9.50;6.80;;;1.20;49.10;;;;;;6227163;28;20477;-60
2022/03/01 01:31:50;;;;;;;10.60;8.00;;;1.20;49.40;;;;;;6227590;28;20952;-60
2022/03/01 01:34:53;;;;;;;8.07;6.50;;;1.20;49.40;;;;;;6227927;28;20484;-60
2022/03/01 01:37:57;;;;;;;8.67;6.50;;;1.20;49.40;;;;;;6227043;28;20483;-60
2022/03/01 01:41:02;;;;;;;8.53;6.90;;;1.20;49.30;;;;;;6226306;28;20480;-60
2022/03/01 01:44:08;;;;;;;7.17;6.37;;;1.20;49.40;;;;;;6226745;28;20537;-60
2022/03/01 01:47:11;;;;;;;9.93;6.60;;;1.10;49.60;;;;;;6226581;28;20776;-60
2022/03/01 01:50:15;;;;;;;8.67;5.87;;;1.10;49.80;;;;;;6226282;28;20975;-60
2022/03/01 01:53:19;;;;;;;8.67;6.80;;;1.10;49.80;;;;;;6226781;28;20480;-60
2022/03/01 01:56:22;;;;;;;6.10;5.50;;;1.10;50.10;;;;;;6226005;28;20483;-60
2022/03/01 01:59:27;;;;;;;8.00;6.23;;;1.10;50.10;;;;;;6226246;28;20492;-60
2022/03/01 02:02:30;;;;;;;12.83;6.10;;;1.00;50.00;;;;;;6225987;28;20534;-60
2022/03/01 02:05:33;;;;;;;7.40;6.70;;;1.00;50.10;;;;;;6226086;28;20469;-60
2022/03/01 02:08:36;;;;;;;10.30;6.67;;;1.00;50.30;;;;;;6226126;28;20960;-60
2022/03/01 02:11:39;;;;;;;6.10;5.40;;;1.00;50.40;;;;;;6225920;28;20804;-60
2022/03/01 02:14:44;;;;;;;6.87;5.20;;;0.90;50.40;;;;;;6225808;28;20972;-60
2022/03/01 02:17:47;;;;;;;8.67;6.00;;;1.00;51.20;;;;;;6215937;28;20495;-60
2022/03/01 02:20:51;;;;;;;7.77;6.23;;;1.00;50.50;;;;;;6226140;28;20484;-60
2022/03/01 02:23:55;;;;;;;5.90;5.40;;;1.00;50.60;;;;;;6225674;28;20810;-60
2022/03/01 02:26:59;;;;;;;9.53;6.23;;;0.90;51.30;;;;;;6225705;28;20484;-60
2022/03/01 02:30:02;;;;;;;9.10;6.83;;;0.90;50.90;;;;;;6225469;28;20484;-60
2022/03/01 02:33:07;;;;;;;8.50;7.70;;;0.80;51.00;;;;;;6225579;28;20476;-60
2022/03/01 02:36:11;;;;;;;11.93;8.53;;;0.80;51.10;;;;;;6225665;28;20480;-60
2022/03/01 02:39:15;;;;;;;10.40;7.93;;;0.90;51.30;;;;;;6225214;28;20558;-60
2022/03/01 02:42:19;;;;;;;8.97;7.27;;;0.80;51.30;;;;;;6225755;28;20479;-60
2022/03/01 02:45:22;;;;;;;9.47;6.20;;;0.70;51.50;;;;;;6225482;28;20474;-60
2022/03/01 02:48:25;;;;;;;11.90;7.00;;;0.60;51.60;;;;;;6225852;28;20505;-60
2022/03/01 02:51:30;;;;;;;9.63;8.63;;;0.50;51.80;;;;;;6225266;28;20940;-60
2022/03/01 02:54:33;;;;;;;11.90;7.90;;;0.50;52.20;;;;;;6226101;28;20475;-59
2022/03/01 02:57:36;;;;;;;7.90;6.00;;;0.40;52.50;;;;;;6226082;28;20477;-60
2022/03/01 03:00:39;;;;;;;6.07;5.27;;;0.40;52.50;;;;;;6225471;28;20467;-60
2022/03/01 03:03:42;;;;;;;8.50;6.20;;;0.40;52.70;;;;;;6225436;28;20444;-60
2022/03/01 03:06:47;;;;;;;6.70;5.93;;;0.40;52.80;;;;;;6226555;28;20456;-61
2022/03/01 03:09:50;;;;;;;8.73;6.70;;;0.40;52.80;;;;;;6230157;28;20923;-60
2022/03/01 03:12:54;;;;;;;6.97;5.47;;;0.30;52.80;;;;;;6230031;28;20498;-61
2022/03/01 03:15:57;;;;;;;11.00;4.90;;;0.30;53.00;;;;;;6230354;28;20468;-60
2022/03/01 03:19:00;;;;;;;9.87;6.20;;;0.30;53.30;;;;;;6221090;28;20775;-59
2022/03/01 03:22:05;;;;;;;5.37;4.30;;;0.30;53.40;;;;;;6231521;28;20467;-60
2022/03/01 03:25:09;;;;;;;6.40;5.13;;;0.30;53.30;;;;;;6230063;28;20489;-61
2022/03/01 03:28:12;;;;;;;5.87;4.97;;;0.30;53.30;;;;;;6229468;28;20487;-61
2022/03/01 03:31:16;;;;;;;5.27;4.87;;;0.30;53.20;;;;;;6229769;28;20476;-61
2022/03/01 03:34:19;;;;;;;5.30;4.70;;;0.20;53.10;;;;;;6232059;28;20494;-60
2022/03/01 03:37:26;;;;;;;5.80;5.30;;;0.20;53.20;;;;;;6231181;28;20468;-60
2022/03/01 03:40:29;;;;;;;6.00;5.20;;;0.20;53.30;;;;;;6229571;28;20480;-59
2022/03/01 03:43:33;;;;;;;5.93;4.90;;;0.20;53.40;;;;;;6229330;28;20484;-60
2022/03/01 03:46:36;;;;;;;7.07;5.83;;;0.20;53.50;;;;;;6229380;28;20482;-60
2022/03/01 03:49:40;;;;;;;6.70;6.00;;;0.20;53.50;;;;;;6229546;28;20479;-60
2022/03/01 03:52:44;;;;;;;6.00;4.90;;;0.20;53.50;;;;;;6229352;28;20481;-60
2022/03/01 03:55:47;;;;;;;5.17;4.67;;;0.20;53.50;;;;;;6229074;28;20480;-61
2022/03/01 03:58:51;;;;;;;5.93;4.80;;;0.20;53.70;;;;;;6228742;28;20472;-60
2022/03/01 04:01:54;;;;;;;5.80;5.20;;;0.20;53.60;;;;;;6228814;28;20948;-61
2022/03/01 04:04:57;;;;;;;6.47;5.60;;;0.20;53.60;;;;;;6228440;28;21006;-60
2022/03/01 04:08:02;;;;;;;8.33;5.40;;;0.20;53.60;;;;;;6228643;28;20999;-60
2022/03/01 04:11:05;;;;;;;5.90;5.27;;;0.20;53.60;;;;;;6228463;28;20480;-62
2022/03/01 04:14:09;;;;;;;7.80;5.80;;;0.10;53.50;;;;;;6228736;28;20479;-61
2022/03/01 04:17:12;;;;;;;8.27;5.43;;;0.10;53.60;;;;;;6228631;28;20599;-61
2022/03/01 04:20:16;;;;;;;9.57;6.57;;;0.10;53.80;;;;;;6227715;28;20530;-61
2022/03/01 04:23:21;;;;;;;5.97;5.20;;;0.10;53.70;;;;;;6223704;28;20476;-60
2022/03/01 04:26:24;;;;;;;6.77;5.10;;;0.00;53.60;;;;;;6228166;28;20483;-60
2022/03/01 04:29:27;;;;;;;6.67;6.00;;;0.00;53.80;;;;;;6228385;28;20480;-60
2022/03/01 04:32:30;;;;;;;8.43;5.00;;;0.00;53.90;;;;;;6227900;28;20477;-60
2022/03/01 04:35:33;;;;;;;6.70;5.10;;;0.00;53.90;;;;;;6228180;28;20480;-60
2022/03/01 04:38:38;;;;;;;8.53;5.83;;;-0.10;54.00;;;;;;6227254;28;20483;-61
2022/03/01 04:41:43;;;;;;;6.50;5.30;;;-0.10;54.30;;;;;;6227762;28;20523;-62
2022/03/01 04:44:46;;;;;;;5.67;5.13;;;-0.10;54.60;;;;;;6227454;28;20542;-62
2022/03/01 04:47:49;;;;;;;11.57;5.97;;;-0.10;54.60;;;;;;6228048;28;20483;-61
2022/03/01 04:50:53;;;;;;;6.10;5.57;;;-0.10;54.80;;;;;;6227150;28;20840;-63
2022/03/01 04:53:58;;;;;;;8.80;6.73;;;-0.10;54.60;;;;;;6227924;28;20483;-62
2022/03/01 04:57:01;;;;;;;9.03;6.07;;;-0.20;54.50;;;;;;6227234;28;20814;-62
2022/03/01 05:00:10;;;;;;;6.80;5.93;;;-0.20;54.50;;;;;;6227591;28;20500;-62
2022/03/01 05:03:14;;;;;;;6.70;5.07;;;-0.20;54.60;;;;;;6227081;28;20995;-62
2022/03/01 05:06:17;;;;;;;5.40;4.90;;;-0.20;54.90;;;;;;6227309;28;20500;-62
2022/03/01 05:09:22;;;;;;;11.30;6.07;;;-0.20;55.10;;;;;;6226974;28;20491;-63
2022/03/01 05:12:25;;;;;;;6.40;5.73;;;-0.20;55.30;;;;;;6227068;28;20488;-62
2022/03/01 05:15:29;;;;;;;8.57;5.80;;;-0.30;55.40;;;;;;6227026;28;20548;-62
2022/03/01 05:18:32;;;;;;;6.77;5.30;;;-0.30;55.40;;;;;;6227313;28;20967;-62
2022/03/01 05:21:35;;;;;;;7.40;6.60;;;-0.20;55.40;;;;;;6227087;28;20483;-62
2022/03/01 05:24:40;;;;;;;6.10;5.47;;;-0.30;55.50;;;;;;6227055;28;20918;-62
2022/03/01 05:27:44;;;;;;;7.00;5.90;;;-0.40;55.50;;;;;;6222163;28;20456;-62
2022/03/01 05:30:48;;;;;;;11.63;6.27;;;-0.40;55.80;;;;;;6226657;28;20521;-62
2022/03/01 05:33:52;;;;;;;6.73;6.13;;;-0.40;55.80;;;;;;6226495;28;20791;-62
2022/03/01 05:36:55;;;;;;;8.80;7.90;;;-0.30;55.90;;;;;;6226895;28;20654;-62
2022/03/01 05:40:00;;;;;;;10.60;7.47;;;-0.40;55.80;;;;;;6226118;28;20476;-62
2022/03/01 05:43:03;;;;;;;11.27;7.23;;;-0.40;55.80;;;;;;6226380;28;20464;-62
2022/03/01 05:46:07;;;;;;;12.80;9.53;;;-0.40;56.10;;;;;;6226521;28;20483;-62
2022/03/01 05:49:10;;;;;;;19.33;11.53;;;-0.40;56.10;;;;;;6226254;28;20479;-62
2022/03/01 05:52:13;;;;;;;14.77;10.50;;;-0.40;56.10;;;;;;6226620;28;20542;-61
2022/03/01 05:55:18;;;;;;;20.43;10.40;;;-0.40;56.30;;;;;;6226790;28;20472;-63
2022/03/01 05:58:21;;;;;;;17.80;10.20;;;-0.40;56.50;;;;;;6226045;28;20874;-61
2022/03/01 06:01:24;;;;;;;17.50;10.40;;;-0.40;56.70;;;;;;6226603;28;20476;-60
2022/03/01 06:04:28;;;;;;;10.80;7.60;;;-0.40;56.50;;;;;;6227409;28;20488;-60
2022/03/01 06:07:31;;;;;;;23.23;11.80;;;-0.40;56.60;;;;;;6226017;28;20817;-61
2022/03/01 06:10:35;;;;;;;18.77;11.83;;;-0.30;56.80;;;;;;6225983;28;20956;-61
2022/03/01 06:13:43;;;;;;;13.60;9.23;;;-0.30;56.80;;;;;;6226673;28;20550;-61
2022/03/01 06:16:46;;;;;;;15.47;9.63;;;-0.30;56.70;;;;;;6227549;28;20488;-61
2022/03/01 06:19:49;;;;;;;14.17;10.10;;;-0.20;56.60;;;;;;6226193;28;20964;-60
2022/03/01 06:22:52;;;;;;;10.13;7.80;;;-0.20;56.70;;;;;;6225662;28;20464;-60
2022/03/01 06:25:58;;;;;;;7.83;7.07;;;-0.20;56.60;;;;;;6225464;28;20476;-61
2022/03/01 06:29:01;;;;;;;7.87;7.00;;;-0.10;56.50;;;;;;6225900;28;20476;-61
2022/03/01 06:32:06;;;;;;;13.10;6.90;;;-0.10;56.30;;;;;;6220669;28;20484;-60
2022/03/01 06:35:09;;;;;;;17.87;10.53;;;0.00;56.20;;;;;;6225712;28;20492;-61
2022/03/01 06:38:18;;;;;;;20.67;11.10;;;0.00;56.10;;;;;;6225521;28;20551;-61
2022/03/01 06:41:23;;;;;;;24.20;12.80;;;0.10;55.90;;;;;;6228051;28;20542;-60
2022/03/01 06:44:26;;;;;;;17.83;11.33;;;0.20;55.80;;;;;;6235385;28;20467;-60
2022/03/01 06:47:29;;;;;;;20.93;11.70;;;0.20;55.70;;;;;;6233804;28;20810;-60
2022/03/01 06:50:32;;;;;;;17.20;11.63;;;0.30;55.80;;;;;;6233246;28;21038;-61
2022/03/01 06:53:36;;;;;;;21.63;11.30;;;0.40;55.50;;;;;;6233825;28;20506;-60
2022/03/01 06:56:41;;;;;;;17.80;9.30;;;0.50;55.20;;;;;;6233344;28;20487;-60
2022/03/01 06:59:44;;;;;;;9.03;7.07;;;0.60;55.40;;;;;;6234088;28;20476;-59
2022/03/01 07:02:47;;;;;;;12.10;6.90;;;0.70;55.00;;;;;;6235624;28;20472;-60
2022/03/01 07:05:51;;;;;;;8.50;7.00;;;0.80;54.80;;;;;;6234517;28;20479;-60
2022/03/01 07:08:54;;;;;;;13.50;7.43;;;0.80;54.50;;;;;;6234428;28;20507;-60
2022/03/01 07:12:00;;;;;;;8.60;6.50;;;0.90;54.40;;;;;;6233609;28;20939;-60
2022/03/01 07:15:03;;;;;;;7.80;7.07;;;0.90;54.70;;;;;;6233180;28;20476;-60
2022/03/01 07:18:06;;;;;;;21.57;8.50;;;1.00;54.00;;;;;;6233271;28;20956;-60
2022/03/01 07:21:10;;;;;;;12.13;7.60;;;1.00;53.80;;;;;;6233101;28;20486;-61
2022/03/01 07:24:13;;;;;;;14.60;8.23;;;1.10;53.80;;;;;;6233148;28;20491;-60
2022/03/01 07:27:18;;;;;;;16.20;7.03;;;1.20;53.40;;;;;;6234863;28;20482;-60
2022/03/01 07:30:24;;;;;;;8.77;7.07;;;1.30;53.00;;;;;;6233333;28;20801;-60
2022/03/01 07:33:27;;;;;;;11.73;7.67;;;1.40;52.50;;;;;;6233297;28;20820;-59
2022/03/01 07:36:30;;;;;;;14.77;7.80;;;1.50;52.30;;;;;;6233216;28;20490;-60
2022/03/01 07:39:34;;;;;;;7.70;6.60;;;1.60;52.20;;;;;;6223164;28;20498;-60
2022/03/01 07:42:38;;;;;;;17.27;6.93;;;1.70;52.70;;;;;;6232798;28;20483;-59
2022/03/01 07:45:41;;;;;;;12.47;7.47;;;1.80;53.50;;;;;;6231180;28;20467;-59
2022/03/01 07:48:45;;;;;;;27.17;7.67;;;1.90;52.00;;;;;;6232402;28;20478;-60
2022/03/01 07:51:48;;;;;;;10.03;7.70;;;2.10;51.50;;;;;;6232759;28;20448;-60
2022/03/01 07:54:51;;;;;;;11.23;7.27;;;2.10;51.00;;;;;;6227699;28;20556;-60
2022/03/01 07:57:56;;;;;;;8.60;6.30;;;2.20;50.60;;;;;;6228019;28;20447;-59
2022/03/01 08:01:00;;;;;;;7.53;5.70;;;2.30;49.60;;;;;;6226853;28;20479;-60
2022/03/01 08:04:03;;;;;;;10.57;5.17;;;2.40;49.30;;;;;;6227118;28;20471;-60
2022/03/01 08:07:06;;;;;;;12.00;5.50;;;2.50;48.20;;;;;;6226646;28;20483;-59
2022/03/01 08:10:10;;;;;;;11.80;6.60;;;2.70;48.30;;;;;;6227874;28;20476;-59
2022/03/01 08:13:15;;;;;;;9.13;6.60;;;2.80;47.50;;;;;;6226860;28;20803;-59
2022/03/01 08:16:19;;;;;;;6.13;5.00;;;3.00;47.20;;;;;;6227512;28;20554;-61
2022/03/01 08:19:23;;;;;;;5.30;4.80;;;3.30;46.80;;;;;;6227114;28;20472;-60
2022/03/01 08:22:26;;;;;;;6.73;5.87;;;3.50;45.60;;;;;;6228048;28;20480;-60
2022/03/01 08:25:31;;;;;;;9.70;5.90;;;3.70;44.80;;;;;;6228980;28;20479;-60
2022/03/01 08:28:36;;;;;;;6.03;5.43;;;3.90;44.60;;;;;;6228789;28;20484;-60
2022/03/01 08:31:41;;;;;;;7.63;5.83;;;4.30;43.90;;;;;;6229060;28;20509;-59
2022/03/01 08:34:44;;;;;;;7.37;5.87;;;4.60;43.70;;;;;;6228086;28;20629;-60
2022/03/01 08:37:47;;;;;;;5.83;4.67;;;5.50;43.80;;;;;;6227960;28;20472;-60
2022/03/01 08:40:50;;;;;;;5.63;4.80;;;9.80;39.00;;;;;;6218621;28;20888;-61
2022/03/01 08:43:55;;;;;;;5.87;5.10;;;14.10;31.80;;;;;;6227892;28;20482;-61
2022/03/01 08:46:58;;;;;;;5.57;4.93;;;18.10;26.90;;;;;;6227809;28;20472;-61
2022/03/01 08:50:01;;;;;;;7.20;5.30;;;21.20;23.10;;;;;;6229899;28;20572;-61
2022/03/01 08:53:24;;;;;;;7.63;5.87;;;22.80;20.90;;;;;;6227911;28;20312;-61
2022/03/01 08:56:28;;;;;;;6.70;6.00;;;24.70;19.10;;;;;;6226378;28;20244;-61
2022/03/01 08:59:32;;;;;;;7.57;6.87;;;25.70;17.90;;;;;;6226219;28;20248;-61
2022/03/01 09:02:37;;;;;;;6.73;6.13;;;26.70;17.10;;;;;;6226595;28;20295;-61
2022/03/01 09:05:40;;;;;;;8.03;6.50;;;27.60;17.00;;;;;;6225591;28;20565;-62
2022/03/01 09:08:43;;;;;;;6.70;6.20;;;29.40;15.60;;;;;;6227392;28;20684;-62
2022/03/01 09:11:47;;;;;;;6.73;6.13;;;30.80;15.00;;;;;;6227559;28;20224;-61
2022/03/01 09:14:51;;;;;;;7.68;7.05;;;32.10;13.80;;;;;;6227177;28;20236;-62
2022/03/01 09:17:54;;;;;;;5.55;5.15;;;33.20;13.10;;;;;;6227355;28;20237;-62
2022/03/01 09:20:58;;;;;;;9.07;6.85;;;34.00;12.70;;;;;;6226675;28;20232;-62
2022/03/01 09:24:04;;;;;;;7.55;6.85;;;34.60;12.40;;;;;;6228211;28;20271;-62
2022/03/01 09:27:08;;;;;;;7.03;6.43;;;35.10;11.70;;;;;;6230973;28;20232;-62
2022/03/01 09:30:13;;;;;;;6.70;6.10;;;35.30;11.70;;;;;;6228084;28;20684;-62
2022/03/01 09:33:17;;;;;;;6.57;5.97;;;35.50;11.30;;;;;;6227053;28;20244;-62
2022/03/01 09:36:20;;;;;;;6.35;5.80;;;35.90;10.80;;;;;;6229312;28;20239;-62
2022/03/01 09:39:23;;;;;;;7.32;6.68;;;35.80;10.70;;;;;;6226473;28;20248;-62
2022/03/01 09:42:27;;;;;;;6.63;6.03;;;35.80;10.60;;;;;;6226691;28;20239;-62
2022/03/01 09:45:31;;;;;;;6.65;5.63;;;35.90;10.30;;;;;;6221522;28;20243;-62
2022/03/01 09:48:35;;;;;;;5.72;5.22;;;36.40;10.30;;;;;;6226566;28;20302;-62
2022/03/01 09:51:40;;;;;;;5.90;5.40;;;34.70;10.20;;;;;;6226199;28;20247;-63
2022/03/01 09:54:43;;;;;;;6.20;5.60;;;34.70;10.30;;;;;;6226074;28;20655;-62
2022/03/01 09:57:47;;;;;;;5.93;5.47;;;34.90;10.30;;;;;;6226429;28;20528;-62
2022/03/01 10:00:51;;;;;;;5.78;5.28;;;34.40;10.20;;;;;;6226196;28;20299;-61
2022/03/01 10:04:07;;;;;;;5.82;5.32;;;35.50;10.10;;;;;;6226185;28;20666;-62
2022/03/01 10:07:13;;;;;;;5.78;5.28;;;36.70;9.80;;;;;;6226351;28;20556;-61
2022/03/01 10:10:18;;;;;;;5.13;4.75;;;36.00;9.40;;;;;;6226735;28;20581;-61
2022/03/01 10:13:25;;;;;;;6.10;5.50;;;35.70;9.80;;;;;;6227521;28;20235;-62
2022/03/01 10:16:37;;;;;;;7.03;5.50;;;35.70;9.60;;;;;;6226232;28;20239;-61
2022/03/01 10:19:41;;;;;;;5.53;5.03;;;36.80;9.70;;;;;;6226417;28;20311;-65
2022/03/01 10:22:45;;;;;;;5.75;5.28;;;37.10;9.20;;;;;;6225742;28;20686;-64
2022/03/01 10:25:48;;;;;;;5.90;5.40;;;37.90;9.20;;;;;;6225650;28;20255;-64
2022/03/01 10:28:53;;;;;;;5.22;4.82;;;38.50;8.80;;;;;;6225591;28;20286;-64
2022/03/01 10:31:59;;;;;;;6.13;5.63;;;39.00;8.50;;;;;;6225537;28;20232;-63
2022/03/01 10:35:06;;;;;;;5.97;5.55;;;38.70;8.50;;;;;;6225670;28;20235;-63
2022/03/01 10:38:10;;;;;;;5.50;5.10;;;38.70;8.30;;;;;;6225176;28;20240;-63
2022/03/01 10:41:24;;;;;;;6.35;5.80;;;39.40;8.40;;;;;;6225401;28;20250;-63
2022/03/01 10:44:29;;;;;;;5.40;5.00;;;39.30;8.00;;;;;;6225660;28;20236;-63
2022/03/01 10:47:35;;;;;;;6.97;6.25;;;39.70;8.10;;;;;;6225660;28;20729;-64
2022/03/01 10:50:40;;;;;;;5.55;5.15;;;40.00;7.90;;;;;;6225474;28;20232;-63
2022/03/01 10:53:45;;;;;;;5.97;4.78;;;39.60;7.80;;;;;;6225631;28;20245;-63
2022/03/01 10:56:53;;;;;;;4.80;4.40;;;40.20;7.90;;;;;;6225598;28;20243;-63
2022/03/01 10:59:58;;;;;;;5.65;5.25;;;41.20;7.90;;;;;;6225630;28;20263;-64
2022/03/01 11:03:04;;;;;;;4.90;4.50;;;42.00;7.50;;;;;;6225438;28;20656;-64
2022/03/01 11:06:09;;;;;;;6.60;5.22;;;42.70;7.20;;;;;;6225453;28;20228;-63
2022/03/01 11:09:13;;;;;;;5.03;4.63;;;43.20;7.00;;;;;;6225300;28;20251;-63
2022/03/01 11:12:21;;;;;;;5.13;4.72;;;43.20;6.80;;;;;;6225665;28;20236;-63
2022/03/01 11:15:39;;;;;;;5.93;5.43;;;43.10;7.00;;;;;;6226031;28;20688;-64
2022/03/01 11:18:53;;;;;;;5.25;4.85;;;43.10;6.60;;;;;;6224672;28;20255;-64
2022/03/01 11:21:57;;;;;;;7.18;5.45;;;43.10;6.80;;;;;;6225361;28;20213;-63
2022/03/01 11:25:01;;;;;;;6.15;5.65;;;43.00;6.80;;;;;;6225222;28;21119;-63
2022/03/01 11:28:08;;;;;;;5.80;5.30;;;43.10;6.70;;;;;;6227229;28;20228;-63
2022/03/01 11:31:22;;;;;;;5.60;5.10;;;43.30;6.50;;;;;;6229688;28;20228;-63
2022/03/01 11:34:27;;;;;;;5.97;5.45;;;43.30;6.50;;;;;;6229559;28;20232;-64
2022/03/01 11:37:31;;;;;;;5.72;5.22;;;43.10;6.60;;;;;;6229528;28;20233;-64
2022/03/01 11:40:36;;;;;;;5.45;5.05;;;42.70;6.70;;;;;;6228984;28;20703;-64
2022/03/01 11:43:40;;;;;;;6.10;5.50;;;42.70;6.60;;;;;;6229197;28;20228;-64
2022/03/01 11:46:45;;;;;;;9.32;4.90;;;42.90;6.70;;;;;;6229244;28;20243;-63
2022/03/01 11:49:49;;;;;;;5.50;5.00;;;43.50;6.20;;;;;;6229235;28;20243;-64
2022/03/01 11:52:58;;;;;;;5.40;4.90;;;43.70;6.30;;;;;;6229020;28;20290;-63
2022/03/01 11:56:03;;;;;;;6.68;6.07;;;43.70;6.20;;;;;;6229089;28;20225;-64
2022/03/01 11:59:07;;;;;;;5.53;5.07;;;44.00;6.10;;;;;;6228951;28;20684;-63
2022/03/01 12:02:12;;;;;;;5.72;5.22;;;44.50;6.20;;;;;;6228891;28;20233;-64
2022/03/01 12:05:25;;;;;;;5.47;4.97;;;44.70;6.10;;;;;;6228674;28;20295;-63
2022/03/01 12:08:29;;;;;;;5.35;4.95;;;43.10;6.40;;;;;;6228532;28;20862;-64
2022/03/01 12:11:35;;;;;;;4.90;4.60;;;43.20;6.10;;;;;;6228561;28;20232;-64
2022/03/01 12:14:38;;;;;;;6.07;5.03;;;43.30;5.90;;;;;;6228460;28;20232;-64
2022/03/01 12:17:49;;;;;;;5.32;4.93;;;42.50;6.40;;;;;;6228575;28;20232;-63
2022/03/01 12:20:54;;;;;;;5.10;4.70;;;42.00;6.40;;;;;;6228516;28;20233;-63
2022/03/01 12:23:57;;;;;;;5.65;5.15;;;41.70;6.60;;;;;;6228438;28;20247;-64
2022/03/01 12:27:03;;;;;;;5.03;4.68;;;42.20;6.60;;;;;;6228203;28;20243;-64
2022/03/01 12:30:07;;;;;;;5.07;4.78;;;42.50;6.60;;;;;;6228605;28;20251;-63
2022/03/01 12:33:15;;;;;;;5.03;4.63;;;41.10;6.70;;;;;;6228296;28;20233;-63
2022/03/01 12:36:28;;;;;;;5.65;5.25;;;41.40;6.80;;;;;;6228681;28;20229;-64
2022/03/01 12:39:32;;;;;;;5.85;5.45;;;41.00;6.40;;;;;;6227668;28;20255;-64
2022/03/01 12:42:37;;;;;;;6.70;5.95;;;39.80;7.10;;;;;;6228678;28;20274;-63
2022/03/01 12:45:42;;;;;;;4.97;4.68;;;39.90;7.10;;;;;;6227600;28;20243;-63
2022/03/01 12:48:47;;;;;;;5.93;5.43;;;40.40;7.10;;;;;;6228067;28;20224;-63
2022/03/01 12:51:54;;;;;;;5.32;4.93;;;41.30;6.90;;;;;;6228415;28;20185;-63
2022/03/01 12:54:57;;;;;;;5.45;5.05;;;41.70;6.70;;;;;;6228294;28;20185;-63
2022/03/01 12:58:00;;;;;;;15.10;9.82;;;42.10;6.50;;;;;;6227807;28;20216;-63
2022/03/01 13:01:06;;;;;;;7.10;5.47;;;42.40;6.60;;;;;;6228172;28;20243;-64
2022/03/01 13:04:10;;;;;;;6.25;5.70;;;41.60;6.80;;;;;;6227849;28;20233;-64
2022/03/01 13:07:15;;;;;;;6.32;5.82;;;41.10;6.90;;;;;;6227903;28;20235;-63
2022/03/01 13:10:34;;;;;;;5.72;5.13;;;38.10;7.40;;;;;;6227212;28;20691;-64
2022/03/01 13:13:41;;;;;;;5.47;5.07;;;36.10;8.20;;;;;;6230570;28;20240;-63
2022/03/01 13:16:47;;;;;;;6.82;6.22;;;35.80;8.30;;;;;;6227539;28;20818;-63
2022/03/01 13:19:50;;;;;;;7.45;6.75;;;36.50;8.40;;;;;;6227347;28;20264;-63
2022/03/01 13:23:03;;;;;;;5.90;5.38;;;36.90;8.10;;;;;;6227176;28;20228;-63
2022/03/01 13:26:08;;;;;;;5.55;5.10;;;38.10;8.00;;;;;;6227242;28;20247;-64
2022/03/01 13:29:13;;;;;;;5.82;5.32;;;39.10;7.60;;;;;;6226719;28;20244;-63
2022/03/01 13:32:20;;;;;;;5.65;5.03;;;39.20;7.50;;;;;;6227207;28;20255;-64
2022/03/01 13:35:29;;;;;;;5.93;5.43;;;39.40;7.40;;;;;;6226711;28;20220;-64
2022/03/01 13:38:33;;;;;;;6.57;5.85;;;38.40;7.60;;;;;;6226496;28;20243;-63
2022/03/01 13:41:40;;;;;;;6.95;6.10;;;37.50;7.70;;;;;;6227040;28;20236;-63
2022/03/01 13:44:46;;;;;;;6.13;5.53;;;35.90;8.20;;;;;;6226809;28;20232;-63
2022/03/01 13:47:51;;;;;;;6.55;5.95;;;35.40;8.30;;;;;;6226907;28;20247;-63
2022/03/01 13:51:03;;;;;;;6.32;5.55;;;35.20;8.40;;;;;;6225689;28;20233;-63
2022/03/01 13:54:09;;;;;;;5.93;5.43;;;35.20;8.60;;;;;;6226661;28;20251;-63
2022/03/01 13:57:24;;;;;;;8.20;7.50;;;33.80;9.00;;;;;;6226542;28;20239;-63
2022/03/01 14:00:32;;;;;;;6.43;5.90;;;31.40;9.80;;;;;;6226060;28;20237;-64
2022/03/01 14:03:36;;;;;;;6.20;5.60;;;28.80;10.90;;;;;;6226307;28;20286;-62
2022/03/01 14:06:48;;;;;;;7.63;5.97;;;26.40;12.10;;;;;;6225880;28;20243;-63
2022/03/01 14:09:53;;;;;;;5.90;5.30;;;23.90;13.50;;;;;;6226216;28;20669;-62
2022/03/01 14:13:02;;;;;;;6.27;5.63;;;21.10;15.00;;;;;;6226048;28;20209;-62
2022/03/01 14:16:08;;;;;;;5.20;4.73;;;19.40;16.20;;;;;;6226229;28;20221;-61
2022/03/01 14:19:12;;;;;;;4.90;4.50;;;18.10;17.10;;;;;;6225820;28;20233;-62
2022/03/01 14:22:15;;;;;;;6.83;5.00;;;16.80;18.10;;;;;;6226140;28;20237;-62
2022/03/01 14:25:20;;;;;;;4.57;4.17;;;16.00;18.80;;;;;;6225684;28;20467;-61
2022/03/01 14:28:23;;;;;;;5.20;4.53;;;14.60;20.10;;;;;;6225236;28;20472;-61
2022/03/01 14:31:28;;;;;;;4.93;4.43;;;14.10;20.60;;;;;;6225477;28;20928;-63
2022/03/01 14:34:31;;;;;;;5.17;4.67;;;13.90;20.90;;;;;;6225698;28;20487;-62
2022/03/01 14:37:34;;;;;;;5.30;4.10;;;13.80;21.10;;;;;;6224761;28;20967;-63
2022/03/01 14:40:39;;;;;;;5.30;4.80;;;13.60;21.20;;;;;;6224378;28;20486;-63
2022/03/01 14:43:42;;;;;;;5.23;4.67;;;13.40;21.50;;;;;;6225279;28;20479;-62
2022/03/01 14:46:45;;;;;;;4.70;4.13;;;13.30;21.80;;;;;;6223718;28;20472;-62
2022/03/01 14:49:48;;;;;;;5.30;4.07;;;13.10;21.90;;;;;;6224015;28;20483;-62
2022/03/01 14:52:52;;;;;;;6.80;5.03;;;12.80;22.20;;;;;;6224054;28;20978;-63
2022/03/01 14:55:56;;;;;;;5.13;4.33;;;12.70;22.60;;;;;;6223931;28;20475;-62
2022/03/01 14:58:59;;;;;;;6.70;5.00;;;12.70;22.70;;;;;;6224283;28;20542;-62
2022/03/01 15:02:03;;;;;;;5.70;5.20;;;12.70;22.70;;;;;;6216821;28;20486;-62
2022/03/01 15:05:08;;;;;;;5.47;4.97;;;12.60;22.70;;;;;;6230636;28;20549;-62
2022/03/01 15:08:12;;;;;;;5.53;5.00;;;12.50;23.30;;;;;;6230083;28;20873;-63
2022/03/01 15:11:17;;;;;;;4.90;4.50;;;12.30;23.00;;;;;;6230245;28;20487;-62
2022/03/01 15:14:20;;;;;;;4.63;4.23;;;12.20;23.40;;;;;;6229728;28;20770;-62
2022/03/01 15:17:24;;;;;;;4.73;4.33;;;11.90;23.50;;;;;;6230516;28;20486;-62
2022/03/01 15:20:27;;;;;;;5.30;4.80;;;11.70;23.80;;;;;;6229826;28;20468;-62
2022/03/01 15:23:32;;;;;;;4.83;4.40;;;11.60;23.90;;;;;;6230261;28;20470;-62
2022/03/01 15:26:37;;;;;;;5.03;4.50;;;11.50;24.20;;;;;;6229611;28;20557;-62
2022/03/01 15:29:40;;;;;;;5.43;4.93;;;11.30;24.30;;;;;;6229884;28;20537;-62
2022/03/01 15:32:44;;;;;;;4.53;4.13;;;11.20;24.50;;;;;;6229548;28;20489;-62
2022/03/01 15:35:48;;;;;;;4.77;4.27;;;11.20;24.80;;;;;;6229617;28;20529;-61
2022/03/01 15:38:51;;;;;;;7.30;5.40;;;11.10;24.80;;;;;;6229207;28;20558;-62
2022/03/01 15:41:56;;;;;;;5.17;4.70;;;10.60;25.10;;;;;;6229396;28;21009;-62
2022/03/01 15:44:59;;;;;;;6.30;4.87;;;10.40;25.30;;;;;;6229068;28;20470;-62
2022/03/01 15:48:02;;;;;;;5.33;4.90;;;10.30;25.50;;;;;;6230237;28;20499;-62
2022/03/01 15:51:05;;;;;;;5.47;4.40;;;10.40;25.80;;;;;;6229981;28;20489;-62
2022/03/01 15:54:09;;;;;;;4.67;4.27;;;10.40;25.80;;;;;;6228963;28;20494;-62
2022/03/01 15:57:13;;;;;;;7.60;4.60;;;10.50;25.70;;;;;;6228820;28;20470;-62
2022/03/01 16:00:19;;;;;;;6.07;5.50;;;10.40;25.80;;;;;;6228336;28;20486;-62
2022/03/01 16:03:22;;;;;;;5.00;4.50;;;10.40;25.90;;;;;;6228967;28;20490;-62
2022/03/01 16:06:26;;;;;;;5.33;4.77;;;10.30;26.10;;;;;;6224896;28;20493;-62
2022/03/01 16:09:29;;;;;;;7.53;4.30;;;10.20;26.10;;;;;;6229259;28;20486;-61